Time;durP1;ratioP1;P1;durP2;ratioP2;P2;SDS_P1;SDS_P2;PMS_P1;PMS_P2;Temp;Humidity;BMP_temperature;BMP_pressure;BME280_temperature;BME280_humidity;BME280_pressure;Samples;Min_cycle;Max_cycle;Signal;HPM_P1;HPM_P2
2021/07/03 00:02:02;;;;;;;15.60;10.47;;;;;;;14.16;100.00;100880.00;5023771;28;20226;-76
2021/07/03 00:04:29;;;;;;;18.10;10.57;;;;;;;14.16;100.00;100882.59;5025293;28;20367;-76
2021/07/03 00:06:55;;;;;;;17.87;10.33;;;;;;;14.11;100.00;100879.28;5009048;28;20220;-77
2021/07/03 00:09:22;;;;;;;16.70;11.10;;;;;;;14.07;100.00;100876.84;5022152;28;20216;-76
2021/07/03 00:11:50;;;;;;;16.83;10.37;;;;;;;14.04;100.00;100879.59;5027011;28;20230;-77
2021/07/03 00:14:17;;;;;;;17.77;10.90;;;;;;;14.06;100.00;100880.38;5023252;28;20317;-77
2021/07/03 00:16:44;;;;;;;18.50;11.37;;;;;;;13.99;100.00;100877.97;5029605;28;20219;-76
2021/07/03 00:19:10;;;;;;;18.13;10.90;;;;;;;13.97;100.00;100874.56;5021603;28;20231;-76
2021/07/03 00:21:38;;;;;;;15.80;10.07;;;;;;;13.98;100.00;100884.16;5031557;28;20245;-76
2021/07/03 00:24:05;;;;;;;16.87;10.33;;;;;;;13.95;100.00;100880.78;5022048;28;20201;-77
2021/07/03 00:26:31;;;;;;;20.63;11.53;;;;;;;13.97;100.00;100879.78;5024115;28;20204;-77
2021/07/03 00:28:59;;;;;;;20.43;11.07;;;;;;;13.90;100.00;100880.94;5009982;28;20311;-76
2021/07/03 00:31:26;;;;;;;17.37;10.50;;;;;;;13.92;100.00;100884.34;5022790;28;20250;-76
2021/07/03 00:33:52;;;;;;;18.50;11.20;;;;;;;13.87;100.00;100870.56;5014546;28;20311;-77
2021/07/03 00:36:20;;;;;;;18.13;11.93;;;;;;;13.83;100.00;100876.81;5022678;28;20394;-76
2021/07/03 00:38:47;;;;;;;18.77;11.83;;;;;;;13.79;100.00;100883.06;5023054;28;20261;-77
2021/07/03 00:41:14;;;;;;;20.80;12.17;;;;;;;13.78;100.00;100889.22;5024752;28;20890;-78
2021/07/03 00:43:41;;;;;;;20.70;11.90;;;;;;;13.78;100.00;100889.22;5014496;28;20257;-77
2021/07/03 00:46:09;;;;;;;20.47;12.50;;;;;;;13.76;100.00;100881.41;5006829;28;20330;-76
2021/07/03 00:48:37;;;;;;;22.60;11.27;;;;;;;13.75;100.00;100887.56;5031704;28;20233;-76
2021/07/03 00:51:03;;;;;;;19.93;12.13;;;;;;;13.76;100.00;100881.41;5007387;28;20230;-77
2021/07/03 00:53:30;;;;;;;17.90;11.57;;;;;;;13.72;100.00;100887.69;5015927;28;20236;-76
2021/07/03 00:55:59;;;;;;;20.33;12.43;;;;;;;13.72;100.00;100886.81;5019739;28;20210;-77
2021/07/03 00:58:26;;;;;;;18.17;11.53;;;;;;;13.69;100.00;100886.94;5011229;28;20208;-77
2021/07/03 01:00:53;;;;;;;22.07;12.10;;;;;;;13.66;100.00;100889.66;5007688;28;20205;-76
2021/07/03 01:03:21;;;;;;;21.10;11.87;;;;;;;13.70;100.00;100884.28;5005221;28;20221;-76
2021/07/03 01:05:51;;;;;;;18.60;11.53;;;;;;;13.70;100.00;100881.66;4995504;28;20200;-78
2021/07/03 01:08:19;;;;;;;18.30;12.13;;;;;;;13.61;100.00;100880.22;5000708;28;20221;-76
2021/07/03 01:10:45;;;;;;;21.47;12.63;;;;;;;13.64;100.00;100880.06;5007024;28;20684;-76
2021/07/03 01:13:26;;;;;;;21.33;11.97;;;;;;;13.67;100.00;100878.25;5003963;28;20221;-77
2021/07/03 01:15:52;;;;;;;21.50;11.93;;;;;;;13.63;100.00;100877.50;5006458;28;20196;-76
2021/07/03 01:18:20;;;;;;;19.67;11.27;;;;;;;13.66;100.00;100879.19;5019310;28;20381;-76
2021/07/03 01:20:53;;;;;;;20.23;11.87;;;;;;;13.59;100.00;100879.38;5014430;28;20205;-77
2021/07/03 01:23:23;;;;;;;22.97;12.40;;;;;;;13.53;100.00;100879.59;5008410;28;20321;-76
2021/07/03 01:25:55;;;;;;;20.97;12.40;;;;;;;13.54;100.00;100878.69;5031742;28;20209;-77
2021/07/03 01:28:23;;;;;;;20.47;12.47;;;;;;;13.59;100.00;100886.38;5025074;28;20261;-75
2021/07/03 01:30:51;;;;;;;19.40;12.57;;;;;;;13.52;100.00;100877.03;5025143;28;20234;-75
2021/07/03 01:33:18;;;;;;;21.87;12.50;;;;;;;13.47;100.00;100876.34;5027934;28;20289;-77
2021/07/03 01:35:44;;;;;;;19.83;12.13;;;;;;;13.53;100.00;100884.00;5008587;28;20426;-77
2021/07/03 01:38:19;;;;;;;18.03;12.13;;;;;;;13.59;100.00;100879.38;5023290;28;20198;-77
2021/07/03 01:40:49;;;;;;;19.43;12.27;;;;;;;13.49;100.00;100882.38;5021139;28;20298;-77
2021/07/03 01:43:19;;;;;;;19.83;12.10;;;;;;;13.52;100.00;100877.88;5031977;28;20302;-77
2021/07/03 01:45:47;;;;;;;21.00;12.60;;;;;;;13.46;100.00;100874.63;5021305;28;20203;-77
2021/07/03 01:48:14;;;;;;;22.90;12.30;;;;;;;13.42;100.00;100881.72;5025161;28;20225;-76
2021/07/03 01:50:40;;;;;;;29.00;13.30;;;;;;;13.40;100.00;100881.78;5019608;28;20248;-77
2021/07/03 01:53:07;;;;;;;22.40;13.90;;;;;;;13.38;100.00;100878.34;5009738;28;20229;-77
2021/07/03 01:55:35;;;;;;;21.70;12.83;;;;;;;13.49;100.00;100877.13;5022669;28;20669;-78
2021/07/03 01:58:04;;;;;;;21.67;13.43;;;;;;;13.48;100.00;100878.06;5014148;28;20209;-78
2021/07/03 02:00:46;;;;;;;21.73;12.83;;;;;;;13.47;100.00;100869.31;5005347;28;20196;-77
2021/07/03 02:03:20;;;;;;;21.80;13.27;;;;;;;13.48;100.00;100878.91;5007730;28;20700;-76
2021/07/03 02:05:48;;;;;;;24.17;12.97;;;;;;;13.50;100.00;100874.47;5026747;28;20298;-77
2021/07/03 02:08:19;;;;;;;24.13;13.50;;;;;;;13.57;100.00;100870.72;5026885;28;20893;-78
2021/07/03 02:10:52;;;;;;;22.57;13.93;;;;;;;13.57;100.00;100867.25;5008191;28;20198;-77
2021/07/03 02:13:21;;;;;;;25.07;13.00;;;;;;;13.58;100.00;100861.97;5005710;28;20217;-76
2021/07/03 02:15:48;;;;;;;23.30;13.70;;;;;;;13.54;100.00;100867.34;5026027;28;20218;-77
2021/07/03 02:18:27;;;;;;;26.67;14.43;;;;;;;13.51;100.00;100857.84;5007584;28;20200;-76
2021/07/03 02:20:54;;;;;;;24.80;14.63;;;;;;;13.54;100.00;100857.72;5024717;28;20212;-77
2021/07/03 02:23:25;;;;;;;23.57;14.20;;;;;;;13.56;100.00;100857.66;5020922;28;20237;-77
2021/07/03 02:25:55;;;;;;;22.20;14.47;;;;;;;13.47;100.00;100853.59;5008661;28;20294;-78
2021/07/03 02:28:28;;;;;;;26.57;13.43;;;;;;;13.42;100.00;100855.53;5009428;28;20254;-76
2021/07/03 02:31:01;;;;;;;24.10;13.63;;;;;;;13.40;100.00;100862.59;5006386;28;20284;-75
2021/07/03 02:33:33;;;;;;;25.50;15.07;;;;;;;13.42;100.00;100855.53;5006932;28;20203;-75
2021/07/03 02:36:02;;;;;;;24.40;14.53;;;;;;;13.39;100.00;100859.13;5006583;28;20295;-76
2021/07/03 02:38:31;;;;;;;28.97;13.97;;;;;;;13.33;100.00;100863.69;5016397;28;20203;-75
2021/07/03 02:40:58;;;;;;;25.40;13.63;;;;;;;13.30;100.00;100859.41;5011084;28;20208;-77
2021/07/03 02:43:28;;;;;;;24.67;14.27;;;;;;;13.33;100.00;100861.09;5038665;28;20282;-76
2021/07/03 02:46:00;;;;;;;26.70;13.27;;;;;;;13.26;100.00;100858.66;5011985;28;20254;-76
2021/07/03 02:48:26;;;;;;;23.57;13.37;;;;;;;13.26;100.00;100863.00;5002887;28;20409;-76
2021/07/03 02:50:54;;;;;;;24.20;13.50;;;;;;;13.24;100.00;100860.47;5023932;28;20205;-76
2021/07/03 02:53:22;;;;;;;24.73;13.63;;;;;;;13.21;100.00;100860.56;5007343;28;20211;-76
2021/07/03 02:55:48;;;;;;;22.73;13.37;;;;;;;13.21;100.00;100855.34;5022634;28;20618;-76
2021/07/03 02:58:15;;;;;;;28.97;13.50;;;;;;;13.19;100.00;100864.13;5024285;28;20216;-76
2021/07/03 03:00:43;;;;;;;25.13;13.63;;;;;;;13.24;100.00;100860.47;5027050;28;20206;-76
2021/07/03 03:03:09;;;;;;;27.10;14.30;;;;;;;13.13;100.00;100856.50;4999733;28;20227;-75
2021/07/03 03:05:35;;;;;;;26.03;15.00;;;;;;;13.14;100.00;100859.06;5033011;28;20208;-76
2021/07/03 03:08:02;;;;;;;22.70;14.20;;;;;;;13.13;100.00;100859.97;5007446;28;20229;-76
2021/07/03 03:10:31;;;;;;;26.37;13.33;;;;;;;13.05;100.00;100852.38;5012289;28;20293;-76
2021/07/03 03:12:58;;;;;;;26.77;14.07;;;;;;;13.05;100.00;100849.75;5022650;28;20281;-76
2021/07/03 03:15:29;;;;;;;25.43;13.67;;;;;;;13.04;100.00;100850.66;5029292;28;20203;-76
2021/07/03 03:18:01;;;;;;;23.57;12.83;;;;;;;13.06;100.00;100851.44;5021414;28;20204;-76
2021/07/03 03:20:29;;;;;;;24.73;13.73;;;;;;;13.04;100.00;100850.66;5030265;28;20203;-77
2021/07/03 03:22:56;;;;;;;23.80;13.10;;;;;;;13.10;100.00;100857.44;5011474;28;20217;-76
2021/07/03 03:25:24;;;;;;;25.57;13.20;;;;;;;13.05;100.00;100855.00;5010744;28;20552;-76
2021/07/03 03:27:50;;;;;;;34.57;14.60;;;;;;;13.06;100.00;100858.44;5024311;28;20230;-76
2021/07/03 03:30:18;;;;;;;25.13;14.27;;;;;;;13.09;100.00;100858.34;5019883;28;20232;-76
2021/07/03 03:32:47;;;;;;;26.90;14.23;;;;;;;13.07;100.00;100853.16;5008142;28;20234;-76
2021/07/03 03:35:15;;;;;;;23.07;13.33;;;;;;;13.16;100.00;100859.88;5002279;28;20709;-77
2021/07/03 03:37:44;;;;;;;23.93;14.37;;;;;;;13.11;100.00;100853.06;5017523;28;20199;-75
2021/07/03 03:40:14;;;;;;;24.30;13.40;;;;;;;13.08;100.00;100862.72;5016974;28;20235;-77
2021/07/03 03:42:41;;;;;;;26.97;14.20;;;;;;;13.19;100.00;100858.88;5011018;28;20230;-75
2021/07/03 03:45:09;;;;;;;26.10;13.90;;;;;;;13.16;100.00;100861.63;5020365;28;20206;-75
2021/07/03 03:47:37;;;;;;;24.63;14.10;;;;;;;13.18;100.00;100870.28;5018965;28;20210;-76
2021/07/03 03:50:08;;;;;;;24.67;14.10;;;;;;;13.19;100.00;100874.59;5030553;28;20221;-76
2021/07/03 03:52:35;;;;;;;27.37;14.43;;;;;;;13.21;100.00;100876.28;5016609;28;20601;-76
2021/07/03 03:55:03;;;;;;;28.00;14.57;;;;;;;13.38;100.00;100873.09;5005671;28;20198;-75
2021/07/03 03:57:30;;;;;;;31.33;15.63;;;;;;;13.28;100.00;100869.09;5011239;28;20576;-75
2021/07/03 04:00:06;;;;;;;30.97;16.07;;;;;;;13.33;100.00;100868.94;5011098;28;20222;-76
2021/07/03 04:02:40;;;;;;;29.10;15.00;;;;;;;13.36;100.00;100861.00;5025746;28;20650;-76
2021/07/03 04:05:08;;;;;;;32.03;16.50;;;;;;;13.36;100.00;100867.06;5030398;28;20241;-76
2021/07/03 04:07:37;;;;;;;34.50;16.70;;;;;;;13.46;100.00;100866.78;5009674;28;20292;-76
2021/07/03 04:10:05;;;;;;;37.37;17.23;;;;;;;13.54;100.00;100860.34;5031068;28;20267;-75
2021/07/03 04:12:33;;;;;;;32.97;17.67;;;;;;;13.55;100.00;100866.47;5021867;28;20302;-76
2021/07/03 04:14:59;;;;;;;32.47;16.83;;;;;;;13.58;100.00;100872.44;5027763;28;20218;-76
2021/07/03 04:17:26;;;;;;;35.23;17.70;;;;;;;13.64;100.00;100868.75;5031264;28;20214;-75
2021/07/03 04:19:53;;;;;;;36.93;16.73;;;;;;;13.78;100.00;100869.13;5030436;28;20665;-76
2021/07/03 04:22:19;;;;;;;34.90;17.17;;;;;;;13.81;100.00;100868.16;5029877;28;20641;-75
2021/07/03 04:24:47;;;;;;;31.60;16.93;;;;;;;13.82;100.00;100869.84;5025791;28;20485;-76
2021/07/03 04:27:14;;;;;;;31.73;17.33;;;;;;;13.82;100.00;100869.84;5029757;28;20699;-78
2021/07/03 04:29:41;;;;;;;29.47;16.47;;;;;;;13.87;100.00;100862.69;5023178;28;20783;-77
2021/07/03 04:32:08;;;;;;;30.07;15.80;;;;;;;13.92;100.00;100873.88;5025942;28;21543;-77
2021/07/03 04:34:35;;;;;;;31.93;16.53;;;;;;;13.98;100.00;100878.03;5009218;28;20204;-77
2021/07/03 04:37:01;;;;;;;31.70;16.57;;;;;;;14.08;100.00;100871.53;5034010;28;20569;-78
2021/07/03 04:39:28;;;;;;;31.40;16.97;;;;;;;14.11;100.00;100875.84;5021836;28;20234;-78
2021/07/03 04:41:55;;;;;;;32.50;16.67;;;;;;;14.12;100.00;100877.53;5027468;28;20424;-78
2021/07/03 04:44:22;;;;;;;31.33;16.77;;;;;;;14.16;100.00;100874.75;5026263;28;20294;-78
2021/07/03 04:46:49;;;;;;;29.80;17.40;;;;;;;14.24;100.00;100874.44;5032762;28;20209;-77
2021/07/03 04:49:16;;;;;;;33.03;16.77;;;;;;;14.38;100.00;100873.94;5024365;28;20550;-77
2021/07/03 04:51:43;;;;;;;28.17;16.40;;;;;;;14.59;100.00;100874.91;5027406;28;20326;-77
2021/07/03 04:54:10;;;;;;;30.50;17.30;;;;;;;14.83;100.00;100873.09;5028763;28;20206;-77
2021/07/03 04:56:37;;;;;;;34.97;17.00;;;;;;;14.97;100.00;100875.16;5025256;28;20215;-77
2021/07/03 04:59:05;;;;;;;32.20;17.10;;;;;;;15.23;100.00;100876.72;5026475;28;20224;-78
2021/07/03 05:01:31;;;;;;;28.47;15.93;;;;;;;15.39;100.00;100873.44;5024628;28;20237;-76
2021/07/03 05:03:57;;;;;;;30.23;17.33;;;;;;;15.44;100.00;100877.59;5025675;28;20281;-76
2021/07/03 05:06:24;;;;;;;27.60;16.53;;;;;;;15.46;100.00;100888.03;5010084;28;20315;-76
2021/07/03 05:08:50;;;;;;;27.73;16.53;;;;;;;15.57;100.00;100885.81;5026787;28;20251;-77
2021/07/03 05:11:17;;;;;;;27.90;16.17;;;;;;;15.70;100.00;100883.50;5019061;28;20609;-77
2021/07/03 05:13:43;;;;;;;24.53;15.10;;;;;;;15.78;100.00;100881.44;5027925;28;20559;-77
2021/07/03 05:16:11;;;;;;;26.47;16.07;;;;;;;15.97;100.00;100881.47;5030240;28;20202;-75
2021/07/03 05:18:37;;;;;;;26.83;15.33;;;;;;;16.01;100.00;100883.03;5026706;28;20213;-78
2021/07/03 05:21:04;;;;;;;22.97;14.57;;;;;;;15.98;100.00;100885.78;5028763;28;20752;-77
2021/07/03 05:23:30;;;;;;;23.37;14.03;;;;;;;15.95;100.00;100878.03;5022625;28;20678;-77
2021/07/03 05:25:57;;;;;;;25.23;15.23;;;;;;;16.14;100.00;100885.97;5025759;28;20211;-75
2021/07/03 05:28:24;;;;;;;25.53;15.20;;;;;;;16.31;98.90;100882.56;5018766;28;20211;-78
2021/07/03 05:30:52;;;;;;;25.03;14.90;;;;;;;16.50;96.94;100887.84;5025510;28;20227;-76
2021/07/03 05:33:20;;;;;;;22.60;14.33;;;;;;;16.61;95.71;100882.91;5023361;28;20618;-76
2021/07/03 05:35:46;;;;;;;21.90;13.93;;;;;;;16.64;94.91;100884.56;5027277;28;20211;-76
2021/07/03 05:38:13;;;;;;;23.67;14.40;;;;;;;16.66;93.95;100891.44;5021773;28;20207;-76
2021/07/03 05:40:39;;;;;;;21.20;13.30;;;;;;;16.72;94.88;100887.66;5023318;28;21376;-76
2021/07/03 05:43:06;;;;;;;20.27;14.13;;;;;;;16.59;94.14;100883.94;5026969;28;20514;-77
2021/07/03 05:45:32;;;;;;;25.40;14.53;;;;;;;16.39;94.17;100884.84;5021647;28;20204;-76
2021/07/03 05:47:59;;;;;;;20.97;13.97;;;;;;;16.35;94.84;100881.50;5025500;28;20199;-76
2021/07/03 05:50:28;;;;;;;19.23;12.53;;;;;;;16.51;95.46;100881.63;5017912;28;20571;-76
2021/07/03 05:52:55;;;;;;;22.03;14.57;;;;;;;16.64;93.75;100892.47;5029325;28;20258;-76
2021/07/03 05:55:22;;;;;;;25.13;14.47;;;;;;;16.86;94.19;100892.31;5023057;28;20208;-77
2021/07/03 05:57:49;;;;;;;22.57;14.07;;;;;;;16.82;91.82;100891.56;5031170;28;20210;-76
2021/07/03 06:00:16;;;;;;;22.77;14.13;;;;;;;16.98;93.14;100888.22;5017013;28;20192;-76
2021/07/03 06:02:44;;;;;;;20.77;13.83;;;;;;;17.02;91.10;100888.00;5003397;28;20220;-76
2021/07/03 06:05:11;;;;;;;21.60;13.67;;;;;;;17.16;92.18;100883.84;5027026;28;20235;-77
2021/07/03 06:07:39;;;;;;;21.60;12.87;;;;;;;17.30;91.58;100885.78;5023835;28;20235;-77
2021/07/03 06:10:06;;;;;;;20.73;12.93;;;;;;;17.31;88.71;100892.78;5021034;28;20223;-76
2021/07/03 06:12:32;;;;;;;19.93;12.23;;;;;;;17.49;90.39;100888.34;5019069;28;20727;-77
2021/07/03 06:14:59;;;;;;;21.17;12.43;;;;;;;17.49;88.44;100891.84;5027882;28;20212;-78
2021/07/03 06:17:25;;;;;;;18.67;12.27;;;;;;;17.58;88.56;100885.25;5022168;28;20266;-77
2021/07/03 06:19:52;;;;;;;20.10;12.40;;;;;;;17.58;89.48;100879.97;5022722;28;20207;-77
2021/07/03 06:22:18;;;;;;;16.67;11.40;;;;;;;17.72;90.38;100877.47;5022306;28;20858;-76
2021/07/03 06:24:47;;;;;;;18.13;11.60;;;;;;;17.87;88.57;100883.78;5026075;28;20196;-78
2021/07/03 06:27:13;;;;;;;16.10;11.93;;;;;;;17.91;86.52;100885.31;5028142;28;20580;-77
2021/07/03 06:29:39;;;;;;;18.00;11.70;;;;;;;18.12;86.48;100882.47;5023857;28;20235;-77
2021/07/03 06:32:07;;;;;;;17.10;11.53;;;;;;;18.18;87.10;100884.75;5025398;28;20248;-78
2021/07/03 06:34:33;;;;;;;20.37;12.10;;;;;;;18.26;85.86;100879.94;5005327;28;20822;-77
2021/07/03 06:37:00;;;;;;;21.60;12.70;;;;;;;18.36;86.32;100875.00;5023256;28;20239;-76
2021/07/03 06:39:27;;;;;;;18.87;12.20;;;;;;;18.38;85.67;100882.81;5025531;28;20199;-77
2021/07/03 06:41:54;;;;;;;20.10;12.07;;;;;;;18.42;86.13;100876.47;5020556;28;20227;-78
2021/07/03 06:44:21;;;;;;;16.00;11.40;;;;;;;18.51;85.82;100884.72;5020120;28;20207;-77
2021/07/03 06:46:47;;;;;;;20.50;11.43;;;;;;;18.62;86.29;100878.00;5010655;28;20300;-77
2021/07/03 06:49:14;;;;;;;16.70;11.70;;;;;;;18.50;84.94;100882.16;5030185;28;20306;-77
2021/07/03 06:51:40;;;;;;;15.37;10.60;;;;;;;18.62;83.98;100889.38;5025265;28;20234;-78
2021/07/03 06:54:08;;;;;;;18.03;10.87;;;;;;;18.73;84.72;100892.31;5010128;28;20204;-79
2021/07/03 06:56:34;;;;;;;15.73;11.80;;;;;;;18.90;84.17;100882.59;5021171;28;20269;-78
2021/07/03 06:59:03;;;;;;;16.40;11.07;;;;;;;19.02;82.92;100883.69;5031103;28;20218;-77
2021/07/03 07:01:29;;;;;;;16.40;10.83;;;;;;;19.21;83.13;100894.06;5018867;28;20318;-78
2021/07/03 07:03:55;;;;;;;16.03;10.17;;;;;;;19.26;81.96;100891.97;5026287;28;20230;-76
2021/07/03 07:06:22;;;;;;;14.80;10.67;;;;;;;19.27;81.15;100896.31;5022095;28;20299;-77
2021/07/03 07:08:48;;;;;;;16.80;10.90;;;;;;;19.31;82.87;100892.56;5028264;28;20219;-78
2021/07/03 07:11:14;;;;;;;16.67;10.93;;;;;;;19.40;81.61;100889.41;5018686;28;20577;-78
2021/07/03 07:13:41;;;;;;;15.80;11.10;;;;;;;19.59;81.16;100885.63;5017023;28;20202;-78
2021/07/03 07:16:09;;;;;;;16.53;9.57;;;;;;;19.66;80.30;100884.31;5024824;28;20196;-77
2021/07/03 07:18:35;;;;;;;14.27;9.10;;;;;;;19.57;81.13;100884.88;5020415;28;20212;-78
2021/07/03 07:21:01;;;;;;;18.07;10.23;;;;;;;19.48;81.46;100884.47;5024735;28;20825;-78
2021/07/03 07:23:28;;;;;;;13.97;10.43;;;;;;;19.56;81.43;100885.81;5020846;28;20212;-78
2021/07/03 07:25:54;;;;;;;14.37;10.10;;;;;;;19.68;81.23;100880.66;5009802;28;20204;-77
2021/07/03 07:28:21;;;;;;;14.03;9.50;;;;;;;19.74;82.44;100875.97;5026530;28;20207;-77
2021/07/03 07:30:47;;;;;;;13.17;9.57;;;;;;;19.74;79.92;100879.47;5033094;28;20637;-78
2021/07/03 07:33:15;;;;;;;14.90;9.90;;;;;;;19.84;78.46;100880.63;5025086;28;20226;-77
2021/07/03 07:35:43;;;;;;;15.07;10.33;;;;;;;20.12;78.24;100873.63;5026812;28;20264;-78
2021/07/03 07:38:09;;;;;;;14.57;9.57;;;;;;;20.34;76.70;100870.47;5026820;28;20294;-78
2021/07/03 07:40:36;;;;;;;11.67;9.10;;;;;;;20.53;77.26;100874.59;5022782;28;20304;-77
2021/07/03 07:43:02;;;;;;;11.60;8.83;;;;;;;20.27;75.21;100878.91;5028875;28;20605;-77
2021/07/03 07:45:29;;;;;;;13.70;8.30;;;;;;;20.31;75.05;100872.47;5022852;28;20218;-78
2021/07/03 07:47:55;;;;;;;13.73;9.07;;;;;;;20.41;74.15;100870.94;5030107;28;20231;-78
2021/07/03 07:50:23;;;;;;;13.47;8.57;;;;;;;20.54;75.92;100865.69;5023048;28;20318;-78
2021/07/03 07:52:49;;;;;;;12.23;9.03;;;;;;;20.51;74.29;100860.59;5027234;28;20227;-77
2021/07/03 07:55:15;;;;;;;11.80;8.23;;;;;;;20.57;74.91;100863.69;5027820;28;20200;-78
2021/07/03 07:57:42;;;;;;;12.57;8.63;;;;;;;20.54;74.16;100857.75;5023954;28;20250;-77
2021/07/03 08:00:09;;;;;;;10.33;7.73;;;;;;;20.66;75.36;100853.50;5028687;28;20210;-78
2021/07/03 08:02:38;;;;;;;9.90;8.03;;;;;;;20.57;73.41;100866.34;5021849;28;20299;-78
2021/07/03 08:05:05;;;;;;;10.93;8.63;;;;;;;20.31;73.57;100862.72;5021689;28;20239;-77
2021/07/03 08:07:33;;;;;;;11.37;8.33;;;;;;;20.08;74.59;100866.81;5017467;28;20207;-77
2021/07/03 08:09:59;;;;;;;10.47;7.93;;;;;;;20.01;75.38;100858.38;5026862;28;20331;-76
2021/07/03 08:12:26;;;;;;;10.40;7.73;;;;;;;20.08;75.26;100855.38;5021904;28;20228;-77
2021/07/03 08:14:52;;;;;;;13.87;8.97;;;;;;;20.21;75.96;100864.22;5023770;28;20204;-76
2021/07/03 08:17:18;;;;;;;11.00;7.87;;;;;;;20.26;74.10;100874.53;5025115;28;20280;-76
2021/07/03 08:19:45;;;;;;;10.40;7.10;;;;;;;20.26;74.13;100866.59;5022972;28;20281;-76
2021/07/03 08:22:11;;;;;;;10.93;7.83;;;;;;;20.21;72.61;100864.22;5019760;28;20747;-76
2021/07/03 08:24:39;;;;;;;12.50;7.77;;;;;;;20.18;72.97;100872.38;5020856;28;20216;-78
2021/07/03 08:27:05;;;;;;;11.37;7.77;;;;;;;20.39;73.40;100871.03;5031655;28;20568;-77
2021/07/03 08:29:32;;;;;;;10.10;7.70;;;;;;;20.61;72.77;100862.59;5021937;28;20338;-77
2021/07/03 08:31:58;;;;;;;12.40;8.47;;;;;;;20.59;72.98;100858.31;5028639;28;21426;-77
2021/07/03 08:34:25;;;;;;;12.37;7.90;;;;;;;20.73;74.07;100857.44;5022737;28;20204;-76
2021/07/03 08:36:51;;;;;;;8.40;6.93;;;;;;;20.89;71.79;100852.84;5028386;28;20628;-77
2021/07/03 08:39:17;;;;;;;10.90;7.67;;;;;;;21.01;70.74;100853.00;5028734;28;20238;-77
2021/07/03 08:41:45;;;;;;;8.67;7.17;;;;;;;20.95;68.80;100862.19;5028820;28;20227;-78
2021/07/03 08:44:14;;;;;;;9.00;6.53;;;;;;;20.87;68.79;100860.03;5031521;28;20290;-76
2021/07/03 08:46:43;;;;;;;9.37;6.77;;;;;;;21.20;69.04;100861.41;5026440;28;20576;-76
2021/07/03 08:49:09;;;;;;;9.00;7.07;;;;;;;21.45;67.07;100862.41;5035663;28;20501;-76
2021/07/03 08:51:35;;;;;;;8.83;6.50;;;;;;;21.78;67.34;100861.06;5023557;28;20226;-76
2021/07/03 08:54:04;;;;;;;10.83;6.80;;;;;;;21.92;64.11;100860.97;5030959;28;20297;-77
2021/07/03 08:56:30;;;;;;;8.63;6.67;;;;;;;22.02;66.12;100858.50;5026916;28;20200;-77
2021/07/03 08:58:58;;;;;;;9.23;6.00;;;;;;;22.22;64.40;100852.63;5028219;28;20209;-76
2021/07/03 09:01:24;;;;;;;9.13;5.63;;;;;;;22.18;60.81;100864.44;5026446;28;20223;-78
2021/07/03 09:03:52;;;;;;;8.17;6.10;;;;;;;22.18;60.94;100864.44;5027334;28;20298;-76
2021/07/03 09:06:30;;;;;;;8.27;6.13;;;;;;;22.19;61.16;100860.78;5030059;28;20630;-77
2021/07/03 09:08:57;;;;;;;6.77;5.30;;;;;;;22.32;63.21;100850.16;5018979;28;20247;-77
2021/07/03 09:11:23;;;;;;;8.43;6.17;;;;;;;22.40;63.58;100831.88;5029937;28;20634;-77
2021/07/03 09:14:00;;;;;;;6.97;5.63;;;;;;;22.49;62.70;100838.31;5025062;28;20306;-78
2021/07/03 09:16:31;;;;;;;6.70;5.43;;;;;;;22.59;62.83;100843.84;5034602;28;20212;-78
2021/07/03 09:18:57;;;;;;;7.05;5.63;;;;;;;22.63;62.57;100835.50;5024636;28;20219;-79
2021/07/03 09:21:24;;;;;;;10.43;6.00;;;;;;;22.96;63.53;100831.31;5028793;28;20254;-78
2021/07/03 09:23:52;;;;;;;7.72;5.72;;;;;;;22.99;62.65;100839.06;5025744;28;20434;-76
2021/07/03 09:26:18;;;;;;;8.05;5.63;;;;;;;22.59;62.55;100830.56;5023215;28;20208;-78
2021/07/03 09:28:46;;;;;;;7.53;4.95;;;;;;;22.05;58.95;100840.53;5019687;28;20314;-77
2021/07/03 09:31:15;;;;;;;5.90;4.95;;;;;;;22.12;60.76;100841.78;5020395;28;20233;-78
2021/07/03 09:33:46;;;;;;;5.65;4.82;;;;;;;22.05;58.29;100837.88;5031576;28;20242;-77
2021/07/03 09:36:14;;;;;;;8.75;4.93;;;;;;;22.09;58.58;100826.09;5019579;28;20308;-77
2021/07/03 09:38:42;;;;;;;9.23;5.20;;;;;;;22.32;62.75;100815.63;5033003;28;20200;-76
2021/07/03 09:41:12;;;;;;;5.80;4.77;;;;;;;22.50;60.36;100819.63;5017142;28;20238;-77
2021/07/03 09:43:42;;;;;;;7.60;4.80;;;;;;;22.66;62.02;100814.03;5023641;28;20211;-75
2021/07/03 09:46:08;;;;;;;5.10;4.00;;;;;;;22.62;60.19;100803.72;5023045;28;20261;-77
2021/07/03 09:48:49;;;;;;;4.43;3.80;;;;;;;22.62;59.35;100811.69;5022015;28;20204;-78
2021/07/03 09:51:16;;;;;;;5.07;4.13;;;;;;;22.77;59.61;100807.06;5025503;28;20562;-75
2021/07/03 09:53:43;;;;;;;5.63;4.57;;;;;;;22.87;56.93;100824.03;5023372;28;20214;-77
2021/07/03 09:56:11;;;;;;;4.63;4.07;;;;;;;23.04;56.87;100815.63;5019752;28;20688;-77
2021/07/03 09:58:38;;;;;;;5.43;4.43;;;;;;;23.14;58.02;100815.81;5006743;28;20207;-76
2021/07/03 10:01:04;;;;;;;4.85;4.13;;;;;;;23.19;58.91;100810.16;5023556;28;20487;-77
2021/07/03 10:03:31;;;;;;;6.05;4.75;;;;;;;23.33;55.61;100814.41;5018938;28;20204;-76
2021/07/03 10:06:00;;;;;;;6.45;4.07;;;;;;;23.45;58.40;100808.13;5022434;28;20302;-78
2021/07/03 10:08:28;;;;;;;5.70;4.30;;;;;;;23.57;56.60;100815.16;5019678;28;20206;-76
2021/07/03 10:10:58;;;;;;;5.45;4.28;;;;;;;23.43;55.88;100810.91;5013377;28;20310;-77
2021/07/03 10:13:25;;;;;;;5.55;4.25;;;;;;;23.61;57.95;100805.13;5008651;28;20202;-76
2021/07/03 10:16:02;;;;;;;4.32;3.92;;;;;;;23.79;57.11;100803.66;5010034;28;20215;-78
2021/07/03 10:18:29;;;;;;;5.85;4.13;;;;;;;23.88;54.85;100815.44;5029144;28;20294;-76
2021/07/03 10:21:08;;;;;;;5.45;3.83;;;;;;;23.71;56.73;100803.44;5016937;28;20208;-76
2021/07/03 10:23:37;;;;;;;5.32;3.80;;;;;;;23.78;54.51;100802.00;5021788;28;20282;-77
2021/07/03 10:26:03;;;;;;;3.90;3.20;;;;;;;23.86;54.02;100805.88;5020535;28;20243;-77
2021/07/03 10:28:32;;;;;;;4.25;3.80;;;;;;;23.75;53.00;100804.88;5024260;28;21476;-77
2021/07/03 10:31:04;;;;;;;4.65;3.70;;;;;;;23.82;54.23;100802.63;5017035;28;21086;-76
2021/07/03 10:33:42;;;;;;;4.35;3.65;;;;;;;23.91;54.83;100804.53;5023718;28;20227;-76
2021/07/03 10:36:10;;;;;;;5.05;3.50;;;;;;;23.99;54.66;100799.47;5018121;28;20240;-78
2021/07/03 10:38:42;;;;;;;6.45;3.55;;;;;;;24.00;56.11;100795.81;5020974;28;20295;-78
2021/07/03 10:41:16;;;;;;;4.07;3.67;;;;;;;24.02;52.81;100798.38;5018176;28;20195;-78
2021/07/03 10:43:44;;;;;;;3.35;3.05;;;;;;;24.05;52.88;100792.78;5023454;28;20210;-77
2021/07/03 10:46:11;;;;;;;3.70;3.25;;;;;;;24.27;53.33;100799.88;5021691;28;20605;-77
2021/07/03 10:48:37;;;;;;;4.53;3.38;;;;;;;24.36;53.96;100792.97;5019153;28;20650;-78
2021/07/03 10:51:11;;;;;;;4.32;3.65;;;;;;;24.51;53.50;100789.03;5015133;28;20690;-77
2021/07/03 10:53:38;;;;;;;3.17;2.88;;;;;;;24.51;53.46;100775.72;5016562;28;20277;-78
2021/07/03 10:56:10;;;;;;;3.33;3.03;;;;;;;24.67;51.77;100785.97;5022284;28;20200;-77
2021/07/03 10:58:38;;;;;;;3.08;2.78;;;;;;;24.46;52.24;100779.75;5017123;28;20212;-77
2021/07/03 11:01:09;;;;;;;4.13;3.30;;;;;;;24.43;50.75;100782.66;5025210;28;20204;-77
2021/07/03 11:03:43;;;;;;;2.95;2.70;;;;;;;24.73;50.09;100788.16;5008872;28;20240;-76
2021/07/03 11:06:14;;;;;;;4.05;2.83;;;;;;;24.86;48.76;100776.47;5018695;28;20900;-78
2021/07/03 11:08:40;;;;;;;3.35;2.72;;;;;;;25.00;48.70;100776.13;5019567;28;20294;-77
2021/07/03 11:11:09;;;;;;;3.55;2.60;;;;;;;25.24;49.04;100773.19;5017190;28;20255;-76
2021/07/03 11:13:35;;;;;;;3.13;2.80;;;;;;;25.02;50.85;100771.50;5028481;28;20214;-77